createdAt,value
2019-02-17T00:00:40.159Z,100709.25
2019-02-17T00:02:12.161Z,100710.00
2019-02-17T00:03:43.427Z,100710.05
2019-02-17T00:05:15.195Z,100708.27
2019-02-17T00:06:46.494Z,100713.95
2019-02-17T00:08:17.787Z,100709.95
2019-02-17T00:09:49.182Z,100708.90
2019-02-17T00:11:20.769Z,100711.15
2019-02-17T00:12:52.076Z,100708.95
2019-02-17T00:14:23.978Z,100711.30
2019-02-17T00:15:55.527Z,100708.61
2019-02-17T00:17:27.243Z,100717.95
2019-02-17T00:18:58.522Z,100710.42
2019-02-17T00:20:30.320Z,100709.72
2019-02-17T00:22:01.696Z,100714.70
2019-02-17T00:23:33.001Z,100705.40
2019-02-17T00:25:04.311Z,100704.42
2019-02-17T00:26:35.899Z,100707.01
2019-02-17T00:28:07.227Z,100705.69
2019-02-17T00:29:38.519Z,100708.23
2019-02-17T00:31:09.810Z,100708.09
2019-02-17T00:32:41.577Z,100706.12
2019-02-17T00:34:13.773Z,100704.81
2019-02-17T00:35:45.238Z,100702.80
2019-02-17T00:37:17.107Z,100701.35
2019-02-17T00:38:49.002Z,100704.41
2019-02-17T00:40:20.337Z,100703.83
2019-02-17T00:41:51.626Z,100704.63
2019-02-17T00:43:22.946Z,100711.20
2019-02-17T00:44:54.743Z,100706.89
2019-02-17T00:46:26.035Z,100703.00
2019-02-17T00:47:57.437Z,100699.65
2019-02-17T00:49:28.712Z,100698.84
2019-02-17T00:51:00.518Z,100707.83
2019-02-17T00:52:31.847Z,100700.47
2019-02-17T00:54:03.195Z,100702.16
2019-02-17T00:55:34.492Z,100693.19
2019-02-17T00:57:06.014Z,100696.05
2019-02-17T00:58:37.320Z,100699.01
2019-02-17T01:00:08.659Z,100699.53
2019-02-17T01:01:39.957Z,100697.24
2019-02-17T01:03:11.577Z,100694.55
2019-02-17T01:04:42.875Z,100696.41
2019-02-17T01:06:14.447Z,100698.69
2019-02-17T01:07:45.779Z,100699.84
2019-02-17T01:09:17.074Z,100692.91
2019-02-17T01:10:49.489Z,100692.22
2019-02-17T01:12:20.963Z,100691.03
2019-02-17T01:13:52.278Z,100687.39
2019-02-17T01:15:23.577Z,100691.88
2019-02-17T01:16:54.946Z,100692.23
2019-02-17T01:18:26.860Z,100684.91
2019-02-17T01:19:58.144Z,100690.50
2019-02-17T01:21:29.742Z,100691.43
2019-02-17T01:23:01.069Z,100688.95
2019-02-17T01:24:32.377Z,100687.61
2019-02-17T01:26:03.746Z,100693.57
2019-02-17T01:27:35.389Z,100684.79
2019-02-17T01:29:06.698Z,100686.44
2019-02-17T01:30:38.000Z,100677.91
2019-02-17T01:32:09.372Z,100679.79
2019-02-17T01:33:40.976Z,100682.19
2019-02-17T01:35:12.314Z,100672.61
2019-02-17T01:36:43.838Z,100676.65
2019-02-17T01:38:15.194Z,100669.88
2019-02-17T01:39:46.494Z,100669.02
2019-02-17T01:41:17.801Z,100673.20
2019-02-17T01:42:49.522Z,100666.27
2019-02-17T01:44:20.864Z,100670.75
2019-02-17T01:45:52.156Z,100668.23
2019-02-17T01:47:23.456Z,100662.06
2019-02-17T01:48:54.995Z,100660.87
2019-02-17T01:50:26.350Z,100665.61
2019-02-17T01:51:58.195Z,100660.67
2019-02-17T01:53:29.480Z,100664.13
2019-02-17T01:55:00.797Z,100660.40
2019-02-17T01:56:32.156Z,100662.72
2019-02-17T01:58:04.059Z,100656.52
2019-02-17T01:59:35.389Z,100655.12
2019-02-17T02:01:06.689Z,100655.45
2019-02-17T02:02:37.998Z,100649.11
2019-02-17T02:04:09.715Z,100654.53
2019-02-17T02:05:41.011Z,100644.17
2019-02-17T02:07:12.523Z,100653.80
2019-02-17T02:08:43.854Z,100646.38
2019-02-17T02:10:15.167Z,100651.11
2019-02-17T02:11:46.510Z,100645.83
2019-02-17T02:13:18.388Z,100646.56
2019-02-17T02:14:49.708Z,100645.49
2019-02-17T02:16:21.032Z,100641.67
2019-02-17T02:17:52.374Z,100640.37
2019-02-17T02:19:24.157Z,100643.56
2019-02-17T02:20:55.466Z,100640.39
2019-02-17T02:22:27.251Z,100638.77
2019-02-17T02:23:58.627Z,100642.78
2019-02-17T02:25:29.938Z,100643.19
2019-02-17T02:27:01.235Z,100639.39
2019-02-17T02:28:32.948Z,100643.92
2019-02-17T02:30:04.302Z,100641.92
2019-02-17T02:31:35.627Z,100639.03
2019-02-17T02:33:06.924Z,100637.13
2019-02-17T02:34:38.590Z,100635.08
2019-02-17T02:36:09.936Z,100631.22
2019-02-17T02:37:41.804Z,100632.84
2019-02-17T02:39:13.114Z,100630.98
2019-02-17T02:40:44.422Z,100628.22
2019-02-17T02:42:15.727Z,100630.16
2019-02-17T02:43:47.265Z,100638.05
2019-02-17T02:45:18.597Z,100632.27
2019-02-17T02:46:49.897Z,100637.48
2019-02-17T02:48:21.211Z,100632.93
2019-02-17T02:49:53.040Z,100628.78
2019-02-17T02:51:24.364Z,100636.47
2019-02-17T02:52:56.247Z,100633.80
2019-02-17T02:54:27.565Z,100633.80
2019-02-17T02:55:58.866Z,100633.33
2019-02-17T02:57:30.160Z,100632.93
2019-02-17T02:59:01.896Z,100629.22
2019-02-17T03:00:33.178Z,100627.07
2019-02-17T03:02:04.507Z,100623.02
2019-02-17T03:03:35.809Z,100628.64
2019-02-17T03:05:07.495Z,100621.17
2019-02-17T03:06:38.816Z,100624.52
2019-02-17T03:08:10.209Z,100628.95
2019-02-17T03:09:41.514Z,100631.24
2019-02-17T03:11:12.873Z,100622.59
2019-02-17T03:12:44.182Z,100627.52
2019-02-17T03:14:15.829Z,100616.77
2019-02-17T03:15:47.119Z,100619.45
2019-02-17T03:17:18.429Z,100624.19
2019-02-17T03:18:49.740Z,100624.53
2019-02-17T03:20:21.306Z,100615.86
2019-02-17T03:21:52.605Z,100613.53
2019-02-17T03:23:24.174Z,100611.86
2019-02-17T03:24:55.476Z,100616.70
2019-02-17T03:26:26.843Z,100618.63
2019-02-17T03:27:58.154Z,100621.94
2019-02-17T03:29:29.839Z,100618.89
2019-02-17T03:31:01.157Z,100617.74
2019-02-17T03:32:33.496Z,100622.02
2019-02-17T03:34:04.818Z,100615.55
2019-02-17T03:35:36.674Z,100616.70
2019-02-17T03:37:07.978Z,100618.52
2019-02-17T03:38:39.837Z,100617.84
2019-02-17T03:40:11.165Z,100623.80
2019-02-17T03:41:42.476Z,100616.54
2019-02-17T03:43:13.805Z,100624.90
2019-02-17T03:44:45.529Z,100619.42
2019-02-17T03:46:16.839Z,100622.45
2019-02-17T03:47:48.127Z,100627.37
2019-02-17T03:49:19.487Z,100623.74
2019-02-17T03:50:51.297Z,100624.70
2019-02-17T03:52:22.582Z,100628.90
2019-02-17T03:53:54.394Z,100626.37
2019-02-17T03:55:25.695Z,100618.12
2019-02-17T03:56:57.002Z,100618.12
2019-02-17T03:58:28.292Z,100617.48
2019-02-17T04:00:00.352Z,100616.98
2019-02-17T04:01:31.767Z,100619.06
2019-02-17T04:03:03.083Z,100616.80
2019-02-17T04:04:34.428Z,100619.39
2019-02-17T04:06:05.925Z,100623.30
2019-02-17T04:07:37.298Z,100623.72
2019-02-17T04:09:09.144Z,100624.09
2019-02-17T04:10:40.450Z,100625.25
2019-02-17T04:12:11.802Z,100618.97
2019-02-17T04:13:43.129Z,100619.27
2019-02-17T04:15:14.805Z,100624.55
2019-02-17T04:16:46.132Z,100627.73
2019-02-17T04:18:17.494Z,100635.00
2019-02-17T04:19:48.798Z,100632.44
2019-02-17T04:21:20.473Z,100631.04
2019-02-17T04:22:51.786Z,100630.31
2019-02-17T04:24:23.573Z,100627.72
2019-02-17T04:25:54.864Z,100627.08
2019-02-17T04:27:26.166Z,100629.82
2019-02-17T04:28:57.520Z,100626.98
2019-02-17T04:30:29.777Z,100628.48
2019-02-17T04:32:01.359Z,100627.70
2019-02-17T04:33:32.677Z,100625.23
2019-02-17T04:35:04.016Z,100634.06
2019-02-17T04:36:35.518Z,100630.81
2019-02-17T04:38:06.842Z,100630.92
2019-02-17T04:39:38.346Z,100626.92
2019-02-17T04:41:09.642Z,100632.59
2019-02-17T04:42:40.991Z,100624.84
2019-02-17T04:44:12.294Z,100618.80
2019-02-17T04:45:43.906Z,100618.80
2019-02-17T04:47:15.271Z,100622.22
2019-02-17T04:48:46.626Z,100623.44
2019-02-17T04:50:17.955Z,100622.03
2019-02-17T04:51:49.662Z,100623.42
2019-02-17T04:53:20.961Z,100627.91
2019-02-17T04:54:52.322Z,100620.92
2019-02-17T04:56:23.630Z,100625.97
2019-02-17T04:57:55.449Z,100625.06
2019-02-17T04:59:26.765Z,100630.30
2019-02-17T05:00:58.153Z,100622.21
2019-02-17T05:02:29.436Z,100624.88
2019-02-17T05:04:00.852Z,100624.36
2019-02-17T05:05:32.167Z,100624.52
2019-02-17T05:07:03.549Z,100631.42
2019-02-17T05:08:34.885Z,100634.01
2019-02-17T05:10:06.674Z,100627.34
2019-02-17T05:11:38.012Z,100625.31
2019-02-17T05:13:09.330Z,100624.00
2019-02-17T05:14:40.727Z,100624.16
2019-02-17T05:16:12.545Z,100633.52
2019-02-17T05:17:43.851Z,100630.33
2019-02-17T05:19:15.166Z,100635.73
2019-02-17T05:20:46.498Z,100635.30
2019-02-17T05:22:18.329Z,100632.86
2019-02-17T05:23:49.604Z,100634.46
2019-02-17T05:25:21.431Z,100635.16
2019-02-17T05:26:52.734Z,100637.53
2019-02-17T05:28:24.024Z,100637.58
2019-02-17T05:29:55.331Z,100632.78
2019-02-17T05:31:26.893Z,100647.67
2019-02-17T05:32:58.213Z,100648.20
2019-02-17T05:34:29.541Z,100649.11
2019-02-17T05:36:01.411Z,100647.86
2019-02-17T05:37:32.953Z,100647.69
2019-02-17T05:39:04.262Z,100647.94
2019-02-17T05:40:36.520Z,100656.47
2019-02-17T05:42:08.309Z,100650.16
2019-02-17T05:43:40.211Z,100653.25
2019-02-17T05:45:11.495Z,100656.85
2019-02-17T05:46:44.928Z,100653.94
2019-02-17T05:48:16.251Z,100659.24
2019-02-17T05:49:47.542Z,100661.01
2019-02-17T05:51:18.831Z,100657.68
2019-02-17T05:52:50.375Z,100652.31
2019-02-17T05:54:21.751Z,100655.61
2019-02-17T05:55:53.355Z,100660.16
2019-02-17T05:57:24.699Z,100664.25
2019-02-17T05:58:55.991Z,100660.38
2019-02-17T06:00:27.324Z,100663.91
2019-02-17T06:01:58.848Z,100664.28
2019-02-17T06:03:30.152Z,100667.23
2019-02-17T06:05:01.453Z,100675.94
2019-02-17T06:06:32.801Z,100673.05
2019-02-17T06:08:04.307Z,100671.02
2019-02-17T06:09:35.626Z,100679.30
2019-02-17T06:11:07.046Z,100676.73
2019-02-17T06:12:38.380Z,100678.98
2019-02-17T06:14:09.710Z,100679.93
2019-02-17T06:15:41.009Z,100681.61
2019-02-17T06:17:12.560Z,100688.23
2019-02-17T06:18:43.896Z,100686.39
2019-02-17T06:20:15.205Z,100685.00
2019-02-17T06:21:46.531Z,100688.78
2019-02-17T06:23:18.032Z,100686.63
2019-02-17T06:24:49.361Z,100685.32
2019-02-17T06:26:20.677Z,100679.50
2019-02-17T06:27:51.966Z,100691.41
2019-02-17T06:29:23.504Z,100683.06
2019-02-17T06:30:54.853Z,100686.52
2019-02-17T06:32:26.185Z,100687.11
2019-02-17T06:33:57.519Z,100686.09
2019-02-17T06:35:29.160Z,100691.91
2019-02-17T06:37:00.507Z,100692.38
2019-02-17T06:38:31.829Z,100696.08
2019-02-17T06:40:03.094Z,100700.12
2019-02-17T06:41:34.742Z,100689.84
2019-02-17T06:43:06.104Z,100684.72
2019-02-17T06:44:37.410Z,100691.80
2019-02-17T06:46:08.734Z,100686.90
2019-02-17T06:47:40.316Z,100694.66
2019-02-17T06:49:11.651Z,100685.17
2019-02-17T06:50:42.960Z,100695.07
2019-02-17T06:52:14.269Z,100692.45
2019-02-17T06:53:45.716Z,100692.39
2019-02-17T06:55:17.021Z,100691.67
2019-02-17T06:56:48.348Z,100690.98
2019-02-17T06:58:20.236Z,100694.39
2019-02-17T06:59:51.859Z,100688.77
2019-02-17T07:01:24.924Z,100691.80
2019-02-17T07:02:56.109Z,100688.06
2019-02-17T07:04:27.425Z,100690.17
2019-02-17T07:06:01.469Z,100683.56
2019-02-17T07:07:32.719Z,100680.29
2019-02-17T07:09:04.854Z,100687.73
2019-02-17T07:10:36.255Z,100684.61
2019-02-17T07:12:08.307Z,100687.88
2019-02-17T07:13:40.189Z,100687.52
2019-02-17T07:15:11.523Z,100683.74
2019-02-17T07:16:42.821Z,100679.56
2019-02-17T07:18:14.396Z,100688.01
2019-02-17T07:19:46.357Z,100683.30
2019-02-17T07:21:18.230Z,100683.26
2019-02-17T07:22:50.101Z,100682.14
2019-02-17T07:24:22.321Z,100688.52
2019-02-17T07:25:54.249Z,100685.00
2019-02-17T07:27:26.350Z,100681.34
2019-02-17T07:28:58.238Z,100681.45
2019-02-17T07:30:30.127Z,100678.86
2019-02-17T07:32:02.045Z,100679.72
2019-02-17T07:33:34.364Z,100677.28
2019-02-17T07:35:06.262Z,100673.58
2019-02-17T07:36:38.197Z,100676.70
2019-02-17T07:38:10.133Z,100675.24
2019-02-17T07:39:42.294Z,100679.55
2019-02-17T07:41:14.169Z,100678.00
2019-02-17T07:42:49.081Z,100670.56
2019-02-17T07:44:21.026Z,100673.97
2019-02-17T07:45:54.676Z,100670.97
2019-02-17T07:47:26.515Z,100670.47
2019-02-17T07:48:58.732Z,100674.44
2019-02-17T07:50:30.694Z,100667.92
2019-02-17T07:52:02.964Z,100672.48
2019-02-17T07:53:34.822Z,100664.64
2019-02-17T08:01:48.334Z,100663.34
2019-02-17T08:03:20.256Z,100664.50
2019-02-17T08:04:52.197Z,100661.50
2019-02-17T08:06:24.118Z,100663.16
2019-02-17T08:07:56.885Z,100656.12
2019-02-17T08:09:28.795Z,100659.28
2019-02-17T08:11:03.939Z,100653.92
2019-02-17T08:12:34.376Z,100657.13
2019-02-17T08:14:06.418Z,100651.33
2019-02-17T08:15:39.349Z,100657.80
2019-02-17T08:17:11.370Z,100654.61
2019-02-17T08:18:43.278Z,100649.20
2019-02-17T08:20:19.125Z,100649.01
2019-02-17T08:21:50.974Z,100641.34
2019-02-17T08:23:23.432Z,100646.94
2019-02-17T08:24:55.379Z,100641.36
2019-02-17T08:26:27.243Z,100640.77
2019-02-17T08:27:59.131Z,100638.55
2019-02-17T08:29:31.264Z,100637.62
2019-02-17T08:31:03.220Z,100635.34
2019-02-17T08:32:35.495Z,100637.13
2019-02-17T08:34:07.406Z,100641.52
2019-02-17T08:35:39.288Z,100640.67
2019-02-17T08:37:11.180Z,100648.19
2019-02-17T08:38:43.316Z,100643.73
2019-02-17T08:40:15.206Z,100646.04
2019-02-17T08:41:47.079Z,100645.22
2019-02-17T08:43:18.984Z,100646.66
2019-02-17T08:44:51.331Z,100645.84
2019-02-17T08:46:23.221Z,100650.42
2019-02-17T08:47:55.355Z,100645.89
2019-02-17T08:49:27.251Z,100650.91
2019-02-17T08:50:59.179Z,100649.55
2019-02-17T08:52:31.081Z,100647.27
2019-02-17T08:54:03.281Z,100656.23
2019-02-17T08:55:35.186Z,100653.41
2019-02-17T08:57:07.111Z,100652.72
2019-02-17T08:58:39.012Z,100648.69
2019-02-17T09:00:18.947Z,100649.49
2019-02-17T09:01:50.887Z,100651.44
2019-02-17T09:03:23.292Z,100647.29
2019-02-17T09:04:55.186Z,100650.20
2019-02-17T09:06:27.067Z,100653.42
2019-02-17T09:07:58.953Z,100646.75
2019-02-17T09:09:31.137Z,100644.11
2019-02-17T09:11:03.000Z,100647.50
2019-02-17T09:12:34.851Z,100644.85
2019-02-17T09:14:06.749Z,100647.55
2019-02-17T09:15:39.166Z,100643.95
2019-02-17T09:17:11.056Z,100642.73
2019-02-17T09:18:43.261Z,100640.14
2019-02-17T09:20:15.238Z,100634.80
2019-02-17T09:21:47.096Z,100635.72
2019-02-17T09:23:19.011Z,100638.37
2019-02-17T09:24:50.574Z,100639.28
2019-02-17T09:26:24.798Z,100635.70
2019-02-17T09:27:56.709Z,100634.25
2019-02-17T09:29:28.625Z,100632.31
2019-02-17T09:31:00.631Z,100634.39
2019-02-17T09:32:32.563Z,100633.08
2019-02-17T09:34:04.455Z,100638.67
2019-02-17T09:35:36.373Z,100626.92
2019-02-17T09:37:08.564Z,100630.80
2019-02-17T09:38:40.460Z,100627.68
2019-02-17T09:40:12.393Z,100623.96
2019-02-17T09:41:44.291Z,100624.64
2019-02-17T09:43:16.322Z,100625.62
2019-02-17T09:44:48.211Z,100624.92
2019-02-17T09:46:20.102Z,100623.69
2019-02-17T09:47:51.986Z,100621.80
2019-02-17T09:49:24.079Z,100612.93
2019-02-17T09:50:55.997Z,100616.70
2019-02-17T09:52:28.353Z,100612.44
2019-02-17T09:53:59.645Z,100612.23
2019-02-17T09:55:31.643Z,100606.39
2019-02-17T09:57:03.533Z,100604.23
2019-02-17T09:58:35.437Z,100604.60
2019-02-17T10:00:07.323Z,100600.70
2019-02-17T10:01:39.391Z,100600.33
2019-02-17T10:03:10.775Z,100599.84
2019-02-17T10:04:42.784Z,100586.58
2019-02-17T10:06:14.658Z,100516.77
2019-02-17T10:07:46.517Z,100581.27
2019-02-17T10:09:18.516Z,100579.66
2019-02-17T10:10:50.928Z,100573.11
2019-02-17T10:12:22.831Z,100567.89
2019-02-17T10:13:54.749Z,100566.16
2019-02-17T10:15:26.076Z,100558.09
2019-02-17T10:16:58.175Z,100559.27
2019-02-17T10:18:30.089Z,100555.07
2019-02-17T10:20:01.399Z,100554.87
2019-02-17T10:21:33.262Z,100554.65
2019-02-17T10:23:05.287Z,100547.08
2019-02-17T10:24:37.217Z,100482.73
2019-02-17T10:26:09.091Z,100537.90
2019-02-17T10:27:41.009Z,100538.77
2019-02-17T10:29:13.055Z,100538.23
2019-02-17T10:30:44.988Z,100538.88
2019-02-17T10:32:16.896Z,100537.19
2019-02-17T10:33:48.792Z,100530.67
2019-02-17T10:35:20.845Z,100527.77
2019-02-17T10:36:52.800Z,100526.18
2019-02-17T10:38:24.634Z,100525.16
2019-02-17T10:39:56.580Z,100520.14
2019-02-17T10:41:28.675Z,100514.66
2019-02-17T10:43:00.639Z,100516.62
2019-02-17T10:44:32.518Z,100510.20
2019-02-17T10:46:06.062Z,100500.44
2019-02-17T10:47:38.186Z,100498.44
2019-02-17T10:49:10.102Z,100500.36
2019-02-17T10:50:42.211Z,100496.18
2019-02-17T10:52:14.178Z,100494.33
2019-02-17T10:53:46.058Z,100488.00
2019-02-17T10:55:17.965Z,100486.23
2019-02-17T10:56:49.995Z,100481.88
2019-02-17T10:58:21.950Z,100475.88
2019-02-17T10:59:55.930Z,100473.67
2019-02-17T11:01:27.375Z,100467.87
2019-02-17T11:02:59.747Z,100471.09
2019-02-17T11:04:31.684Z,100468.69
2019-02-17T11:06:03.582Z,100468.84
2019-02-17T11:07:35.493Z,100464.77
2019-02-17T11:09:07.758Z,100458.98
2019-02-17T11:10:40.594Z,100448.28
2019-02-17T11:12:12.510Z,100452.81
2019-02-17T11:13:44.415Z,100448.94
2019-02-17T11:15:16.601Z,100438.89
2019-02-17T11:16:49.022Z,100442.88
2019-02-17T11:18:20.918Z,100439.66
2019-02-17T11:19:52.842Z,100433.67
2019-02-17T11:21:24.988Z,100427.56
2019-02-17T11:22:56.949Z,100427.93
2019-02-17T11:24:28.851Z,100429.02
2019-02-17T11:26:02.641Z,100426.63
2019-02-17T11:27:34.471Z,100425.61
2019-02-17T11:29:07.493Z,100421.06
2019-02-17T11:30:39.402Z,100416.97
2019-02-17T11:32:11.290Z,100420.13
2019-02-17T11:33:43.316Z,100355.79
2019-02-17T11:35:15.219Z,100412.66
2019-02-17T11:36:47.140Z,100408.27
2019-02-17T11:38:19.025Z,100409.14
2019-02-17T11:39:51.030Z,100406.62
2019-02-17T11:41:22.985Z,100400.98
2019-02-17T11:42:54.895Z,100402.73
2019-02-17T11:44:26.775Z,100401.08
2019-02-17T11:45:58.906Z,100396.08
2019-02-17T11:47:30.846Z,100396.11
2019-02-17T11:49:02.716Z,100389.36
2019-02-17T11:50:34.623Z,100396.06
2019-02-17T11:52:06.721Z,100385.91
2019-02-17T11:53:38.677Z,100386.70
2019-02-17T11:55:10.569Z,100386.30
2019-02-17T11:56:42.453Z,100381.12
2019-02-17T11:58:14.742Z,100374.47
2019-02-17T11:59:46.700Z,100374.13
2019-02-17T12:01:18.579Z,100373.19
2019-02-17T12:02:50.454Z,100369.03
2019-02-17T12:04:22.536Z,100369.71
2019-02-17T12:05:54.511Z,100367.48
2019-02-17T12:07:26.380Z,100363.62
2019-02-17T12:08:58.257Z,100360.53
2019-02-17T12:10:30.339Z,100361.74
2019-02-17T12:12:02.282Z,100358.56
2019-02-17T12:13:34.182Z,100349.73
2019-02-17T12:15:06.097Z,100352.64
2019-02-17T12:16:38.331Z,100348.92
2019-02-17T12:18:10.184Z,100341.19
2019-02-17T12:19:42.081Z,100342.47
2019-02-17T12:21:14.014Z,100337.72
2019-02-17T12:22:46.143Z,100340.59
2019-02-17T12:24:18.004Z,100336.72
2019-02-17T12:25:49.889Z,100333.16
2019-02-17T12:27:21.893Z,100336.64
2019-02-17T12:28:54.272Z,100334.66
2019-02-17T12:30:26.205Z,100331.50
2019-02-17T12:31:58.092Z,100327.78
2019-02-17T12:33:30.000Z,100329.68
2019-02-17T12:35:02.117Z,100324.03
2019-02-17T12:36:33.997Z,100320.75
2019-02-17T12:38:06.216Z,100316.34
2019-02-17T12:39:38.105Z,100310.66
2019-02-17T12:41:10.007Z,100313.78
2019-02-17T12:42:41.891Z,100314.17
2019-02-17T12:44:14.264Z,100313.14
2019-02-17T12:45:46.170Z,100311.14
2019-02-17T12:47:18.084Z,100308.03
2019-02-17T12:48:51.881Z,100307.05
2019-02-17T12:50:24.019Z,100298.18
2019-02-17T12:51:55.939Z,100301.16
2019-02-17T12:53:28.230Z,100298.74
2019-02-17T12:55:00.320Z,100297.75
2019-02-17T12:56:32.141Z,100298.18
2019-02-17T12:58:04.041Z,100291.06
2019-02-17T12:59:36.360Z,100292.16
2019-02-17T13:01:10.770Z,100295.52
2019-02-17T13:02:42.725Z,100292.48
2019-02-17T13:04:14.609Z,100290.20
2019-02-17T13:05:47.033Z,100289.38
2019-02-17T13:07:18.951Z,100290.39
2019-02-17T13:08:51.120Z,100283.91
2019-02-17T13:10:22.997Z,100283.00
2019-02-17T13:11:55.170Z,100282.17
2019-02-17T13:13:27.054Z,100276.54
2019-02-17T13:14:58.920Z,100276.61
2019-02-17T13:16:30.836Z,100274.23
2019-02-17T13:18:03.087Z,100273.17
2019-02-17T13:19:34.973Z,100272.59
2019-02-17T13:21:06.896Z,100271.70
2019-02-17T13:22:38.805Z,100269.99
2019-02-17T13:24:10.891Z,100267.67
2019-02-17T13:25:42.853Z,100260.93
2019-02-17T13:27:14.726Z,100258.88
2019-02-17T13:28:46.603Z,100260.13
2019-02-17T13:30:19.531Z,100255.16
2019-02-17T13:31:51.443Z,100248.61
2019-02-17T13:33:23.407Z,100249.94
2019-02-17T13:34:55.302Z,100250.02
2019-02-17T13:36:27.484Z,100246.14
2019-02-17T13:37:59.373Z,100252.67
2019-02-17T13:39:31.602Z,100245.62
2019-02-17T13:41:03.488Z,100245.27
2019-02-17T13:42:35.381Z,100243.41
2019-02-17T13:44:07.262Z,100245.52
2019-02-17T13:45:39.538Z,100246.30
2019-02-17T13:47:11.418Z,100244.51
2019-02-17T13:48:43.313Z,100243.58
2019-02-17T13:50:15.193Z,100240.95
2019-02-17T13:51:47.349Z,100236.84
2019-02-17T13:53:19.250Z,100240.72
2019-02-17T13:54:51.315Z,100237.59
2019-02-17T13:56:23.202Z,100238.25
2019-02-17T13:57:55.126Z,100233.25
2019-02-17T13:59:27.046Z,100229.64
2019-02-17T14:00:59.186Z,100230.53
2019-02-17T14:02:31.079Z,100229.22
2019-02-17T14:04:03.034Z,100231.98
2019-02-17T14:05:34.922Z,100230.51
2019-02-17T14:07:06.923Z,100230.02
2019-02-17T14:08:38.863Z,100227.20
2019-02-17T14:10:11.052Z,100222.34
2019-02-17T14:11:42.930Z,100221.55
2019-02-17T14:13:14.823Z,100221.27
2019-02-17T14:14:47.002Z,100221.84
2019-02-17T14:16:19.470Z,100221.22
2019-02-17T14:17:51.311Z,100214.63
2019-02-17T14:19:23.236Z,100210.52
2019-02-17T14:20:55.163Z,100212.08
2019-02-17T14:22:27.257Z,100212.98
2019-02-17T14:23:59.153Z,100210.78
2019-02-17T14:25:31.407Z,100209.05
2019-02-17T14:27:03.302Z,100205.36
2019-02-17T14:28:35.210Z,100209.55
2019-02-17T14:30:07.123Z,100200.95
2019-02-17T14:31:39.220Z,100206.77
2019-02-17T14:33:11.097Z,100205.28
2019-02-17T14:34:43.050Z,100203.25
2019-02-17T14:36:14.930Z,100206.95
2019-02-17T14:37:47.151Z,100207.58
2019-02-17T14:39:19.077Z,100207.50
2019-02-17T14:40:51.269Z,100205.90
2019-02-17T14:42:23.148Z,100199.08
2019-02-17T14:43:55.064Z,100196.62
2019-02-17T14:45:26.954Z,100196.70
2019-02-17T14:46:59.011Z,100197.35
2019-02-17T14:48:30.879Z,100201.48
2019-02-17T14:50:02.795Z,100197.17
2019-02-17T14:51:34.677Z,100204.25
2019-02-17T14:53:07.952Z,100195.89
2019-02-17T14:54:39.869Z,100200.23
2019-02-17T14:56:12.149Z,100200.33
2019-02-17T14:57:44.041Z,100201.31
2019-02-17T14:59:15.978Z,100194.67
2019-02-17T15:00:47.994Z,100195.25
2019-02-17T15:02:20.178Z,100189.81
2019-02-17T15:03:52.073Z,100198.95
2019-02-17T15:05:23.969Z,100198.44
2019-02-17T15:06:55.872Z,100198.70
2019-02-17T15:08:28.221Z,100196.81
2019-02-17T15:10:00.094Z,100194.61
2019-02-17T15:11:32.523Z,100194.62
2019-02-17T15:13:04.417Z,100195.53
2019-02-17T15:14:36.325Z,100190.63
2019-02-17T15:16:08.225Z,100194.84
2019-02-17T15:17:40.452Z,100188.34
2019-02-17T15:19:12.353Z,100191.88
2019-02-17T15:20:44.248Z,100191.45
2019-02-17T15:22:16.168Z,100192.85
2019-02-17T15:23:48.328Z,100192.59
2019-02-17T15:25:20.203Z,100191.39
2019-02-17T15:26:52.308Z,100195.23
2019-02-17T15:28:24.233Z,100190.06
2019-02-17T15:29:56.105Z,100188.17
2019-02-17T15:31:27.985Z,100190.05
2019-02-17T15:33:04.091Z,100198.25
2019-02-17T15:34:35.373Z,100196.73
2019-02-17T15:36:07.484Z,100196.33
2019-02-17T15:37:39.357Z,100191.78
2019-02-17T15:39:11.614Z,100198.17
2019-02-17T15:40:43.484Z,100194.27
2019-02-17T15:42:15.630Z,100195.95
2019-02-17T15:43:47.554Z,100203.22
2019-02-17T15:45:19.489Z,100212.12
2019-02-17T15:46:51.445Z,100205.23
2019-02-17T15:48:23.761Z,100208.42
2019-02-17T15:49:55.718Z,100204.13
2019-02-17T15:51:27.599Z,100206.11
2019-02-17T15:52:59.509Z,100212.60
2019-02-17T15:54:31.804Z,100211.92
2019-02-17T15:56:03.719Z,100219.27
2019-02-17T15:57:35.817Z,100218.73
2019-02-17T15:59:07.733Z,100225.66
2019-02-17T16:00:39.648Z,100222.02
2019-02-17T16:02:11.578Z,100228.43
2019-02-17T16:03:45.008Z,100228.84
2019-02-17T16:05:17.260Z,100229.30
2019-02-17T16:06:49.138Z,100229.91
2019-02-17T16:08:21.086Z,100231.73
2019-02-17T16:09:53.107Z,100235.18
2019-02-17T16:11:25.062Z,100236.42
2019-02-17T16:12:56.969Z,100233.33
2019-02-17T16:14:28.921Z,100234.48
2019-02-17T16:16:01.435Z,100240.73
2019-02-17T16:17:33.383Z,100234.41
2019-02-17T16:19:05.274Z,100241.66
2019-02-17T16:20:37.139Z,100248.34
2019-02-17T16:22:09.241Z,100244.23
2019-02-17T16:23:43.030Z,100256.30
2019-02-17T16:25:14.701Z,100254.34
2019-02-17T16:26:46.611Z,100256.95
2019-02-17T16:28:18.748Z,100259.67
2019-02-17T16:29:50.635Z,100260.66
2019-02-17T16:31:22.535Z,100265.69
2019-02-17T16:32:54.449Z,100256.25
2019-02-17T16:34:26.529Z,100258.63
2019-02-17T16:35:58.532Z,100269.22
2019-02-17T16:37:30.456Z,100268.34
2019-02-17T16:39:02.388Z,100264.24
2019-02-17T16:40:34.486Z,100267.67
2019-02-17T16:42:06.472Z,100269.14
2019-02-17T16:43:38.390Z,100266.34
2019-02-17T16:45:10.992Z,100275.73
2019-02-17T16:46:43.063Z,100266.60
2019-02-17T16:48:14.983Z,100270.89
2019-02-17T16:49:46.934Z,100273.18
2019-02-17T16:51:18.892Z,100271.27
2019-02-17T16:52:50.975Z,100274.30
2019-02-17T16:54:22.877Z,100283.45
2019-02-17T16:55:54.828Z,100280.59
2019-02-17T16:57:26.840Z,100284.81
2019-02-17T16:59:01.726Z,100285.25
2019-02-17T17:00:33.574Z,100286.53
2019-02-17T17:02:05.477Z,100285.36
2019-02-17T17:03:37.456Z,100286.09
2019-02-17T17:05:09.478Z,100282.28
2019-02-17T17:06:41.385Z,100288.09
2019-02-17T17:08:13.353Z,100280.76
2019-02-17T17:09:45.281Z,100280.28
2019-02-17T17:11:17.358Z,100281.64
2019-02-17T17:12:49.238Z,100281.70
2019-02-17T17:14:21.220Z,100283.81
2019-02-17T17:15:53.145Z,100287.32
2019-02-17T17:17:25.390Z,100287.40
2019-02-17T17:18:57.302Z,100291.16
2019-02-17T17:20:29.285Z,100289.97
2019-02-17T17:22:01.191Z,100289.64
2019-02-17T17:23:33.256Z,100289.41
2019-02-17T17:25:05.184Z,100292.47
2019-02-17T17:26:37.124Z,100290.63
2019-02-17T17:28:09.111Z,100290.97
2019-02-17T17:29:41.090Z,100295.19
2019-02-17T17:31:12.995Z,100290.09
2019-02-17T17:32:44.908Z,100293.77
2019-02-17T17:34:16.688Z,100297.72